Time;durP1;ratioP1;P1;durP2;ratioP2;P2;SDS_P1;SDS_P2;PMS_P1;PMS_P2;Temp;Humidity;BMP_temperature;BMP_pressure;BME280_temperature;BME280_humidity;BME280_pressure;Samples;Min_cycle;Max_cycle;Signal;HPM_P1;HPM_P2
2021/08/18 00:01:26;;;;;;;22.40;17.03;;;;;;;21.37;100.00;100064.20;1651152;85;21901;-59
2021/08/18 00:03:53;;;;;;;22.27;18.53;;;;;;;21.34;100.00;100060.21;1650332;85;21490;-59
2021/08/18 00:06:19;;;;;;;25.43;17.77;;;;;;;21.29;100.00;100054.86;1626811;87;21070;-58
2021/08/18 00:08:47;;;;;;;26.50;18.30;;;;;;;21.26;100.00;100051.40;1633922;86;21110;-57
2021/08/18 00:11:16;;;;;;;23.67;19.00;;;;;;;21.26;100.00;100049.28;1628610;87;21044;-59
2021/08/18 00:13:43;;;;;;;24.73;20.03;;;;;;;21.24;100.00;100050.05;1626722;86;21244;-59
2021/08/18 00:16:12;;;;;;;25.40;20.43;;;;;;;21.19;100.00;100054.81;1639660;86;20976;-59
2021/08/18 00:18:39;;;;;;;24.17;19.00;;;;;;;21.16;100.00;100052.67;1640261;87;21136;-59
2021/08/18 00:21:08;;;;;;;22.73;16.30;;;;;;;21.10;100.00;100057.16;1634159;87;21075;-58
2021/08/18 00:23:36;;;;;;;26.20;17.30;;;;;;;21.10;100.00;100051.86;1635545;86;21847;-59
2021/08/18 00:26:04;;;;;;;25.07;18.60;;;;;;;21.11;100.00;100049.47;1626688;87;22368;-58
2021/08/18 00:28:31;;;;;;;24.23;17.10;;;;;;;21.12;100.00;100052.38;1632432;87;21094;-60
2021/08/18 00:30:59;;;;;;;21.23;16.73;;;;;;;21.13;100.00;100053.17;1658037;85;21454;-59
2021/08/18 00:33:26;;;;;;;22.20;17.17;;;;;;;21.12;100.00;100048.41;1636609;86;21487;-59
2021/08/18 00:35:52;;;;;;;24.30;18.83;;;;;;;21.08;100.00;100053.95;1629080;87;21036;-59
2021/08/18 00:38:18;;;;;;;26.50;19.53;;;;;;;21.08;100.00;100056.61;1620976;87;21899;-58
2021/08/18 00:40:45;;;;;;;22.67;18.17;;;;;;;20.99;100.00;100060.81;1628120;87;22356;-59
2021/08/18 00:43:14;;;;;;;23.83;18.50;;;;;;;20.87;100.00;100057.03;1647489;86;21028;-58
2021/08/18 00:45:42;;;;;;;25.43;19.23;;;;;;;20.78;100.00;100051.92;1642357;86;21081;-60
2021/08/18 00:48:09;;;;;;;24.57;19.17;;;;;;;20.67;100.00;100054.77;1665774;83;20997;-56
2021/08/18 00:50:38;;;;;;;25.60;18.93;;;;;;;20.56;100.00;100049.38;1659220;84;20931;-58
2021/08/18 00:53:04;;;;;;;23.77;18.97;;;;;;;20.51;100.00;100065.77;1658552;85;21088;-59
2021/08/18 00:55:30;;;;;;;24.97;19.07;;;;;;;20.38;100.00;100061.16;1662512;84;21515;-60
2021/08/18 00:57:58;;;;;;;21.97;18.30;;;;;;;20.39;100.00;100060.63;1666240;84;21518;-57
2021/08/18 01:00:25;;;;;;;24.03;17.53;;;;;;;20.31;100.00;100059.77;1658176;85;21560;-58
2021/08/18 01:02:52;;;;;;;23.43;16.90;;;;;;;20.22;100.00;100055.96;1657742;85;22458;-60
2021/08/18 01:05:28;;;;;;;22.23;17.00;;;;;;;20.23;100.00;100054.41;1661156;85;20982;-58
2021/08/18 01:07:57;;;;;;;24.33;17.83;;;;;;;20.30;100.00;100048.88;1662581;85;21164;-59
2021/08/18 01:10:26;;;;;;;23.17;17.93;;;;;;;20.23;100.00;100047.79;1651377;85;21030;-59
2021/08/18 01:12:54;;;;;;;22.50;17.50;;;;;;;20.23;100.00;100046.96;1653801;85;21084;-59
2021/08/18 01:15:22;;;;;;;22.07;17.33;;;;;;;20.20;100.00;100048.81;1665449;84;21134;-58
2021/08/18 01:17:53;;;;;;;22.03;17.40;;;;;;;20.12;100.00;100047.42;1662601;84;21076;-59
2021/08/18 01:20:29;;;;;;;21.15;17.77;;;;;;;20.09;100.00;100045.27;1680090;84;20957;-58
2021/08/18 01:22:59;;;;;;;21.97;17.80;;;;;;;20.06;100.00;100051.06;1677793;84;21057;-59
2021/08/18 01:25:26;;;;;;;25.63;18.47;;;;;;;20.06;100.00;100057.67;1678992;83;20973;-57
2021/08/18 01:27:55;;;;;;;30.43;19.10;;;;;;;20.03;100.00;100053.67;1678584;83;21199;-59
2021/08/18 01:30:23;;;;;;;28.33;20.73;;;;;;;20.00;100.00;100056.84;1680043;83;21259;-60
2021/08/18 01:32:58;;;;;;;26.67;21.33;;;;;;;20.05;100.00;100057.41;1678697;84;21116;-64
2021/08/18 01:35:28;;;;;;;28.30;21.50;;;;;;;20.03;100.00;100055.52;1672873;84;21527;-59
2021/08/18 01:37:54;;;;;;;29.53;21.83;;;;;;;19.98;100.00;100052.84;1672786;83;21119;-60
2021/08/18 01:40:22;;;;;;;26.67;21.57;;;;;;;19.87;100.00;100050.61;1679513;83;21162;-60
2021/08/18 01:42:49;;;;;;;29.73;23.13;;;;;;;19.86;100.00;100052.98;1678121;84;21084;-59
2021/08/18 01:45:29;;;;;;;32.13;24.20;;;;;;;19.87;100.00;100053.26;1680252;84;20950;-60
2021/08/18 01:47:56;;;;;;;26.60;21.40;;;;;;;19.85;100.00;100048.72;1678408;83;21641;-59
2021/08/18 01:50:23;;;;;;;28.33;20.33;;;;;;;19.82;100.00;100046.60;1681147;83;21669;-60
2021/08/18 01:52:56;;;;;;;27.40;20.80;;;;;;;19.68;100.00;100040.36;1678456;84;21578;-58
2021/08/18 01:55:24;;;;;;;27.20;21.23;;;;;;;19.61;100.00;100039.72;1678536;83;21083;-60
2021/08/18 01:57:54;;;;;;;27.80;21.70;;;;;;;19.63;100.00;100040.32;1677283;84;21044;-60
2021/08/18 02:00:21;;;;;;;29.30;21.10;;;;;;;19.63;100.00;100040.32;1680320;83;22586;-61
2021/08/18 02:02:47;;;;;;;23.93;20.33;;;;;;;19.69;100.00;100038.52;1674001;84;21018;-61
2021/08/18 02:05:13;;;;;;;29.63;20.43;;;;;;;19.76;100.00;100040.97;1673435;84;21219;-59
2021/08/18 02:07:40;;;;;;;26.47;20.70;;;;;;;19.73;100.00;100045.43;1665990;84;21076;-60
2021/08/18 02:10:14;;;;;;;28.53;23.63;;;;;;;19.74;100.00;100039.12;1667039;84;20976;-60
2021/08/18 02:12:41;;;;;;;29.00;24.03;;;;;;;19.71;100.00;100040.41;1663036;85;21598;-58
2021/08/18 02:15:11;;;;;;;30.43;23.87;;;;;;;19.69;100.00;100042.48;1662133;84;21094;-58
2021/08/18 02:17:39;;;;;;;27.67;20.80;;;;;;;19.69;100.00;100047.77;1665656;84;21670;-59
2021/08/18 02:20:09;;;;;;;26.97;21.80;;;;;;;19.69;100.00;100046.45;1662312;84;21033;-59
2021/08/18 02:22:36;;;;;;;25.87;22.27;;;;;;;19.72;100.00;100045.95;1663738;85;21086;-59
2021/08/18 02:25:05;;;;;;;26.90;21.83;;;;;;;19.70;100.00;100044.10;1662008;84;21058;-57
2021/08/18 02:27:33;;;;;;;27.87;20.77;;;;;;;19.66;100.00;100046.94;1638573;85;20986;-58
2021/08/18 02:29:59;;;;;;;30.03;20.73;;;;;;;19.68;100.00;100048.83;1640938;86;21151;-59
2021/08/18 02:32:25;;;;;;;26.00;21.73;;;;;;;19.64;100.00;100044.55;1646584;86;21516;-59
2021/08/18 02:34:52;;;;;;;26.10;21.23;;;;;;;19.60;100.00;100039.45;1642884;87;21590;-59
2021/08/18 02:37:18;;;;;;;28.97;20.17;;;;;;;19.60;100.00;100040.78;1639510;87;21037;-57
2021/08/18 02:39:45;;;;;;;22.53;18.43;;;;;;;19.54;100.00;100038.31;1643213;87;21619;-59
2021/08/18 02:42:11;;;;;;;21.17;17.43;;;;;;;19.58;100.00;100040.74;1642563;87;21154;-62
2021/08/18 02:44:38;;;;;;;20.30;16.97;;;;;;;19.67;100.00;100038.77;1637733;87;21032;-59
2021/08/18 02:47:06;;;;;;;22.40;18.43;;;;;;;19.80;100.00;100037.58;1632784;87;21016;-59
2021/08/18 02:49:34;;;;;;;25.23;19.77;;;;;;;19.89;100.00;100036.09;1633744;87;21096;-59
2021/08/18 02:52:03;;;;;;;21.77;16.97;;;;;;;19.97;100.00;100031.41;1639105;87;21075;-60
2021/08/18 02:54:30;;;;;;;22.10;17.23;;;;;;;20.10;100.00;100034.95;1632987;87;22222;-59
2021/08/18 02:56:57;;;;;;;24.73;16.80;;;;;;;20.20;100.00;100032.94;1625899;86;22456;-60
2021/08/18 02:59:24;;;;;;;21.53;16.77;;;;;;;20.29;100.00;100037.50;1640386;87;21642;-60
2021/08/18 03:01:51;;;;;;;21.03;17.57;;;;;;;20.37;100.00;100034.91;1616111;84;21107;-59
2021/08/18 03:04:17;;;;;;;17.17;15.10;;;;;;;20.51;100.00;100033.47;1613412;88;21054;-60
2021/08/18 03:06:44;;;;;;;20.80;15.83;;;;;;;20.63;100.00;100034.08;1614099;87;21167;-61
2021/08/18 03:09:12;;;;;;;19.90;16.43;;;;;;;20.77;100.00;100030.47;1613230;88;21042;-59
2021/08/18 03:11:38;;;;;;;23.13;16.47;;;;;;;20.88;100.00;100027.36;1620590;85;21031;-60
2021/08/18 03:14:05;;;;;;;21.37;16.60;;;;;;;20.94;100.00;100023.66;1620736;87;21352;-60
2021/08/18 03:16:33;;;;;;;21.70;15.80;;;;;;;21.04;100.00;100025.05;1622094;87;20976;-60
2021/08/18 03:18:59;;;;;;;20.83;16.73;;;;;;;21.21;100.00;100021.41;1622855;87;21814;-59
2021/08/18 03:21:27;;;;;;;19.17;16.27;;;;;;;21.30;100.00;100018.54;1618914;87;20960;-58
2021/08/18 03:23:53;;;;;;;19.40;16.83;;;;;;;21.43;100.00;100023.37;1622321;87;21498;-60
2021/08/18 03:26:22;;;;;;;22.80;16.03;;;;;;;21.59;100.00;100025.03;1622762;87;21587;-60
2021/08/18 03:28:50;;;;;;;22.53;16.53;;;;;;;21.71;100.00;100022.14;1621763;87;21546;-60
2021/08/18 03:31:18;;;;;;;21.97;16.10;;;;;;;21.94;100.00;100016.87;1623265;87;21435;-60
2021/08/18 03:33:44;;;;;;;25.07;17.53;;;;;;;22.15;100.00;100016.37;1621000;87;21056;-61
2021/08/18 03:36:11;;;;;;;23.50;16.90;;;;;;;22.51;100.00;100013.71;1620628;87;21113;-61
2021/08/18 03:38:37;;;;;;;25.63;17.87;;;;;;;23.02;100.00;100011.73;1619694;87;21149;-60
2021/08/18 03:41:04;;;;;;;20.90;15.07;;;;;;;23.68;100.00;100005.34;1616521;87;21585;-61
2021/08/18 03:43:30;;;;;;;24.50;17.10;;;;;;;24.35;100.00;100004.83;1618179;87;21156;-61
2021/08/18 03:45:57;;;;;;;24.93;17.27;;;;;;;24.98;100.00;99998.08;1622703;87;21023;-61
2021/08/18 03:48:24;;;;;;;21.37;15.50;;;;;;;25.58;100.00;99998.94;1623006;87;21011;-61
2021/08/18 03:50:50;;;;;;;22.73;16.83;;;;;;;26.17;100.00;99988.14;1622046;87;20984;-61
2021/08/18 03:53:17;;;;;;;20.77;15.83;;;;;;;26.73;100.00;99982.36;1622476;87;21031;-61
2021/08/18 03:55:44;;;;;;;22.32;16.10;;;;;;;27.32;100.00;99976.64;1621117;87;21163;-59
2021/08/18 03:58:11;;;;;;;20.52;15.93;;;;;;;27.75;100.00;99968.97;1617085;87;22424;-61
2021/08/18 04:00:38;;;;;;;21.52;15.10;;;;;;;28.02;100.00;99969.38;1624958;87;21078;-61
2021/08/18 04:03:04;;;;;;;18.20;15.10;;;;;;;28.34;100.00;99971.53;1612326;87;20893;-59
2021/08/18 04:05:31;;;;;;;21.37;16.07;;;;;;;28.67;100.00;99973.33;1619291;88;20979;-59
2021/08/18 04:07:58;;;;;;;21.15;15.55;;;;;;;28.96;100.00;99971.44;1618141;88;21640;-58
2021/08/18 04:10:25;;;;;;;22.32;17.27;;;;;;;29.27;100.00;99962.51;1618955;88;21588;-59
2021/08/18 04:12:59;;;;;;;23.92;20.10;;;;;;;29.56;100.00;99972.63;1619377;87;21662;-58
2021/08/18 04:15:39;;;;;;;20.77;16.60;;;;;;;29.78;100.00;99962.30;1631810;86;21578;-60
2021/08/18 04:18:08;;;;;;;21.37;17.45;;;;;;;30.18;100.00;99961.50;1663964;84;21368;-60
2021/08/18 04:20:35;;;;;;;23.62;16.45;;;;;;;30.49;96.85;99958.52;1675536;84;22271;-59
2021/08/18 04:23:02;;;;;;;20.17;16.17;;;;;;;30.79;90.08;99953.19;1675694;84;21560;-59
2021/08/18 04:25:30;;;;;;;26.50;18.50;;;;;;;31.01;88.54;99954.23;1676142;84;21594;-59
2021/08/18 04:27:57;;;;;;;21.90;15.78;;;;;;;31.35;83.65;99952.98;1677143;84;21051;-59
2021/08/18 04:30:24;;;;;;;22.22;15.95;;;;;;;31.69;78.59;99955.93;1674981;84;21116;-60
2021/08/18 04:32:51;;;;;;;18.67;15.10;;;;;;;31.97;76.23;99950.75;1663921;84;21212;-60
2021/08/18 04:35:18;;;;;;;21.25;15.55;;;;;;;32.36;70.80;99953.40;1676062;84;20926;-60
2021/08/18 04:37:46;;;;;;;20.45;15.72;;;;;;;32.62;62.82;99956.36;1674875;84;21536;-59
2021/08/18 04:40:15;;;;;;;20.90;15.95;;;;;;;32.68;61.29;99953.07;1674100;84;21628;-59
2021/08/18 04:42:46;;;;;;;19.02;14.70;;;;;;;32.73;58.40;99950.70;1674562;84;22564;-59
2021/08/18 04:45:14;;;;;;;18.48;15.38;;;;;;;32.67;59.57;99944.76;1675730;84;21629;-58
2021/08/18 04:47:41;;;;;;;20.32;15.00;;;;;;;32.86;59.21;99948.78;1675633;84;21028;-58
2021/08/18 04:50:11;;;;;;;18.65;16.17;;;;;;;32.95;57.67;99944.06;1664883;84;21017;-58
2021/08/18 04:52:40;;;;;;;20.72;15.28;;;;;;;33.17;56.85;99944.91;1675836;85;20997;-59
2021/08/18 04:55:08;;;;;;;20.62;15.90;;;;;;;33.58;55.69;99937.58;1675732;83;21002;-59
2021/08/18 04:57:35;;;;;;;17.07;14.23;;;;;;;34.04;53.00;99943.98;1675621;84;21897;-59
2021/08/18 05:00:03;;;;;;;18.05;14.65;;;;;;;34.35;48.63;99943.19;1674182;84;20958;-59
2021/08/18 05:02:29;;;;;;;17.35;14.50;;;;;;;34.09;47.45;99945.85;1675727;84;22201;-59
2021/08/18 05:05:00;;;;;;;21.57;15.08;;;;;;;33.60;49.20;99946.68;1675666;84;21058;-59
2021/08/18 05:07:26;;;;;;;17.07;15.25;;;;;;;33.50;51.43;99946.63;1676315;84;21445;-59
2021/08/18 05:09:53;;;;;;;22.00;16.15;;;;;;;33.79;51.58;99946.02;1674037;84;21492;-58
2021/08/18 05:12:19;;;;;;;22.80;16.05;;;;;;;34.30;50.33;99944.81;1674600;84;21053;-60
2021/08/18 05:14:46;;;;;;;19.82;15.50;;;;;;;34.72;48.02;99945.61;1661905;84;21104;-60
2021/08/18 05:17:14;;;;;;;19.65;15.53;;;;;;;34.97;46.99;99939.39;1660547;83;21041;-60
2021/08/18 05:19:42;;;;;;;18.05;14.58;;;;;;;35.18;45.66;99942.55;1674729;84;21008;-60
2021/08/18 05:22:08;;;;;;;17.27;14.45;;;;;;;35.35;45.35;99938.64;1667522;83;21161;-60
2021/08/18 05:24:35;;;;;;;16.95;14.10;;;;;;;35.43;44.24;99939.55;1656198;83;21481;-60
2021/08/18 05:27:04;;;;;;;17.35;14.40;;;;;;;35.43;44.65;99931.42;1655958;84;21086;-61
2021/08/18 05:29:31;;;;;;;20.20;15.58;;;;;;;35.74;44.81;99938.59;1660759;83;21161;-60
2021/08/18 05:31:57;;;;;;;20.82;15.35;;;;;;;36.03;43.16;99928.48;1628307;84;22530;-59
2021/08/18 05:34:25;;;;;;;18.52;15.10;;;;;;;36.26;41.34;99930.39;1662888;83;22404;-61
2021/08/18 05:36:52;;;;;;;18.00;15.93;;;;;;;36.21;40.92;99918.47;1658424;83;21195;-59
2021/08/18 05:39:18;;;;;;;19.23;15.05;;;;;;;36.10;41.21;99918.30;1659328;83;21054;-61
2021/08/18 05:41:46;;;;;;;21.33;15.40;;;;;;;36.21;41.54;99913.04;1659991;83;21535;-61
2021/08/18 05:44:13;;;;;;;19.77;14.98;;;;;;;36.27;40.71;99912.95;1646424;84;21155;-60
2021/08/18 05:46:40;;;;;;;17.48;13.65;;;;;;;36.31;40.64;99917.86;1672473;84;21438;-59
2021/08/18 05:49:06;;;;;;;16.50;14.30;;;;;;;36.40;40.26;99914.30;1672231;83;22770;-60
2021/08/18 05:51:33;;;;;;;15.28;13.40;;;;;;;36.43;39.65;99912.21;1664791;85;21100;-59
2021/08/18 05:53:59;;;;;;;17.17;13.62;;;;;;;36.56;38.58;99916.09;1665324;84;21175;-60
2021/08/18 05:56:26;;;;;;;16.55;14.53;;;;;;;36.57;38.62;99906.81;1671878;84;21015;-59
2021/08/18 05:58:52;;;;;;;15.70;13.38;;;;;;;36.71;38.64;99913.78;1674491;85;21162;-59
2021/08/18 06:01:19;;;;;;;15.15;13.55;;;;;;;36.84;37.95;99911.05;1674805;84;20973;-59
2021/08/18 06:03:47;;;;;;;15.70;13.90;;;;;;;36.97;37.17;99906.18;1637384;86;21594;-59
2021/08/18 06:06:14;;;;;;;15.75;12.78;;;;;;;36.95;37.36;99907.92;1639301;86;20994;-59
2021/08/18 06:08:40;;;;;;;19.20;14.50;;;;;;;37.06;36.89;99904.56;1636316;86;21128;-60
2021/08/18 06:11:08;;;;;;;16.02;14.03;;;;;;;37.06;36.84;99904.56;1645443;86;21094;-60
2021/08/18 06:13:35;;;;;;;18.45;14.95;;;;;;;36.87;37.34;99899.45;1650475;85;21601;-61
2021/08/18 06:16:03;;;;;;;18.67;15.20;;;;;;;36.84;37.58;99902.91;1649503;85;21518;-60
2021/08/18 06:18:31;;;;;;;18.02;15.45;;;;;;;36.91;37.21;99898.92;1646781;86;21028;-61
2021/08/18 06:20:59;;;;;;;18.23;14.98;;;;;;;36.95;37.37;99891.63;1646653;85;21115;-61
2021/08/18 06:23:29;;;;;;;17.52;13.98;;;;;;;37.16;37.24;99893.00;1646438;85;21031;-61
2021/08/18 06:25:55;;;;;;;20.00;14.13;;;;;;;37.38;35.76;99896.16;1639116;85;21021;-59
2021/08/18 06:28:22;;;;;;;17.57;14.90;;;;;;;37.53;35.76;99894.39;1649920;85;21084;-59
2021/08/18 06:30:48;;;;;;;16.52;14.83;;;;;;;37.64;35.06;99885.75;1637492;86;21675;-59
2021/08/18 06:33:15;;;;;;;18.10;13.58;;;;;;;37.68;34.36;99886.56;1631050;87;21759;-59
2021/08/18 06:35:41;;;;;;;14.80;12.98;;;;;;;37.71;33.87;99885.82;1628035;87;21163;-59
2021/08/18 06:38:08;;;;;;;17.80;12.73;;;;;;;37.70;33.69;99881.55;1627549;87;21016;-60
2021/08/18 06:40:35;;;;;;;19.57;12.15;;;;;;;37.62;31.84;99886.72;1636170;85;21099;-58
2021/08/18 06:43:04;;;;;;;15.18;12.70;;;;;;;37.09;33.02;99887.48;1638873;85;22263;-58
2021/08/18 06:45:30;;;;;;;15.00;11.22;;;;;;;36.63;34.25;99881.67;1641865;86;21683;-59
2021/08/18 06:47:57;;;;;;;15.75;12.80;;;;;;;36.56;33.86;99880.25;1651972;86;21162;-59
2021/08/18 06:50:24;;;;;;;15.05;12.35;;;;;;;36.34;33.60;99879.13;1646633;86;21044;-61
2021/08/18 06:52:51;;;;;;;16.67;13.18;;;;;;;36.14;35.03;99871.67;1641719;86;21019;-59
2021/08/18 06:55:18;;;;;;;15.08;12.88;;;;;;;36.22;34.54;99871.20;1648490;85;21168;-60
2021/08/18 06:57:46;;;;;;;20.85;13.20;;;;;;;36.30;34.16;99866.09;1653362;85;21062;-60
2021/08/18 07:00:13;;;;;;;14.80;12.47;;;;;;;36.23;33.15;99864.63;1646194;86;21028;-60
2021/08/18 07:02:45;;;;;;;14.03;11.73;;;;;;;36.39;31.27;99867.95;1648952;86;21562;-58
2021/08/18 07:05:14;;;;;;;12.93;10.98;;;;;;;36.32;30.96;99870.56;1676094;84;21394;-61
2021/08/18 07:07:40;;;;;;;13.72;11.38;;;;;;;36.36;31.36;99863.83;1667221;84;21118;-61
2021/08/18 07:10:09;;;;;;;18.60;11.97;;;;;;;36.40;29.97;99860.58;1666045;84;21536;-62
2021/08/18 07:12:36;;;;;;;14.50;11.65;;;;;;;36.31;30.04;99866.28;1675971;84;22029;-60
2021/08/18 07:15:06;;;;;;;14.35;12.00;;;;;;;36.27;30.28;99855.38;1677425;84;20918;-62
2021/08/18 07:17:34;;;;;;;15.23;11.83;;;;;;;36.25;30.66;99855.52;1675047;84;21072;-61
2021/08/18 07:20:02;;;;;;;15.00;11.30;;;;;;;36.37;31.26;99851.26;1664027;84;21136;-60
2021/08/18 07:22:29;;;;;;;11.97;10.70;;;;;;;36.47;30.25;99851.98;1673712;83;21012;-60
2021/08/18 07:24:57;;;;;;;16.02;11.20;;;;;;;36.42;30.62;99850.94;1666971;85;21156;-60
2021/08/18 07:27:23;;;;;;;16.07;11.60;;;;;;;36.36;30.58;99855.68;1672246;84;21053;-61
2021/08/18 07:29:52;;;;;;;12.88;11.28;;;;;;;36.35;30.93;99854.91;1669246;84;21595;-61
2021/08/18 07:32:20;;;;;;;14.33;11.83;;;;;;;36.23;30.82;99845.05;1670047;85;21054;-61
2021/08/18 07:34:46;;;;;;;16.12;11.60;;;;;;;36.06;31.16;99844.20;1661644;84;21122;-59
2021/08/18 07:37:13;;;;;;;15.88;10.75;;;;;;;35.87;31.69;99840.98;1660215;84;21631;-62
2021/08/18 07:39:39;;;;;;;13.70;10.43;;;;;;;35.80;31.20;99843.03;1676039;84;21032;-59
2021/08/18 07:42:06;;;;;;;13.35;11.60;;;;;;;35.65;31.17;99836.36;1669826;85;21026;-60
2021/08/18 07:44:32;;;;;;;14.33;10.88;;;;;;;35.47;31.28;99835.47;1666627;84;21012;-60
2021/08/18 07:47:00;;;;;;;13.25;11.03;;;;;;;35.24;30.25;99838.74;1666012;84;21992;-60
2021/08/18 07:49:27;;;;;;;15.40;11.00;;;;;;;34.94;31.16;99834.47;1676061;84;21129;-61
2021/08/18 07:51:54;;;;;;;15.63;12.03;;;;;;;34.71;31.73;99840.59;1673422;84;21099;-61
2021/08/18 07:54:21;;;;;;;13.95;10.95;;;;;;;34.69;31.89;99839.38;1676479;84;21017;-61
2021/08/18 07:56:48;;;;;;;17.82;12.37;;;;;;;34.62;31.74;99838.65;1672485;84;20956;-60
2021/08/18 07:59:15;;;;;;;15.53;11.35;;;;;;;34.38;31.87;99835.61;1670647;84;22024;-60
2021/08/18 08:01:42;;;;;;;15.35;10.55;;;;;;;34.33;32.63;99835.31;1666004;84;21126;-61
2021/08/18 08:04:09;;;;;;;12.95;11.00;;;;;;;34.31;31.68;99827.33;1650366;84;20968;-61
2021/08/18 08:06:37;;;;;;;12.95;11.35;;;;;;;34.29;31.24;99826.91;1646393;86;20921;-61
2021/08/18 08:09:03;;;;;;;16.48;11.93;;;;;;;34.19;31.49;99821.47;1646889;86;20976;-61
2021/08/18 08:11:30;;;;;;;17.27;12.37;;;;;;;34.20;31.58;99816.84;1645762;86;20988;-62
2021/08/18 08:13:57;;;;;;;13.78;10.95;;;;;;;34.16;30.90;99810.56;1643002;86;21097;-61
2021/08/18 08:16:23;;;;;;;12.82;11.08;;;;;;;34.14;31.71;99811.71;1639394;87;21520;-60
2021/08/18 08:18:51;;;;;;;13.83;10.60;;;;;;;34.21;31.75;99812.44;1647160;85;21028;-60
2021/08/18 08:21:18;;;;;;;16.10;11.30;;;;;;;34.27;30.94;99811.59;1651829;86;21325;-61
2021/08/18 08:23:46;;;;;;;14.45;11.90;;;;;;;34.41;28.64;99807.84;1646774;85;21043;-61
2021/08/18 08:26:12;;;;;;;15.88;11.50;;;;;;;34.45;28.57;99808.70;1646826;86;21906;-61
2021/08/18 08:28:39;;;;;;;13.55;10.95;;;;;;;34.46;29.11;99802.14;1645489;86;21071;-62
2021/08/18 08:31:06;;;;;;;14.93;11.00;;;;;;;34.66;29.02;99800.25;1629106;85;21571;-58
2021/08/18 08:33:33;;;;;;;16.85;11.83;;;;;;;34.90;28.78;99794.34;1640724;87;21103;-59
2021/08/18 08:36:00;;;;;;;13.08;11.60;;;;;;;35.10;28.13;99783.14;1640924;86;21092;-59
2021/08/18 08:38:26;;;;;;;14.73;11.33;;;;;;;35.20;28.38;99791.26;1641098;87;21161;-61
2021/08/18 08:40:52;;;;;;;19.05;11.73;;;;;;;35.41;27.94;99791.41;1640582;86;21007;-61
2021/08/18 08:43:19;;;;;;;14.50;12.05;;;;;;;35.31;27.59;99780.61;1646984;86;22424;-61
2021/08/18 08:45:47;;;;;;;12.65;11.35;;;;;;;35.29;28.19;99786.38;1650682;85;21578;-61
2021/08/18 08:48:20;;;;;;;12.47;10.48;;;;;;;35.35;26.97;99785.52;1648153;86;21506;-59
2021/08/18 08:50:49;;;;;;;14.68;11.73;;;;;;;35.37;27.55;99782.44;1649666;85;22114;-59
2021/08/18 08:53:17;;;;;;;17.05;12.85;;;;;;;35.39;27.62;99784.22;1645665;86;21060;-60
2021/08/18 08:55:46;;;;;;;14.10;10.75;;;;;;;35.48;27.44;99779.33;1649076;85;33577;-61
2021/08/18 08:58:12;;;;;;;16.12;11.57;;;;;;;35.47;27.18;99784.55;1646812;85;20980;-59
2021/08/18 09:00:39;;;;;;;14.20;11.60;;;;;;;35.42;27.50;99778.86;1648841;86;21024;-60
2021/08/18 09:03:18;;;;;;;12.55;10.93;;;;;;;35.42;27.02;99776.16;1657580;85;21159;-58
2021/08/18 09:05:45;;;;;;;11.83;10.15;;;;;;;35.29;27.25;99777.47;1674609;84;21527;-60
2021/08/18 09:08:19;;;;;;;14.20;11.35;;;;;;;35.22;27.48;99769.98;1671206;84;21500;-61
2021/08/18 09:11:12;;;;;;;15.03;12.23;;;;;;;35.41;27.60;99769.14;1672530;83;21130;-59
2021/08/18 09:13:50;;;;;;;15.40;11.73;;;;;;;35.54;27.27;99764.36;1679544;84;21523;-61
2021/08/18 09:16:23;;;;;;;15.00;10.85;;;;;;;35.60;26.82;99763.47;1667466;84;21141;-59
2021/08/18 09:18:54;;;;;;;12.70;10.60;;;;;;;35.55;26.58;99765.34;1677466;84;21298;-62
2021/08/18 09:21:37;;;;;;;15.38;11.57;;;;;;;35.54;26.10;99760.30;1678659;83;21065;-64
2021/08/18 09:24:21;;;;;;;14.35;10.43;;;;;;;35.44;26.13;99756.80;1672937;84;21076;-60
2021/08/18 09:26:55;;;;;;;14.73;11.48;;;;;;;35.36;26.16;99764.03;1670934;84;22634;-61
2021/08/18 09:29:32;;;;;;;16.73;11.45;;;;;;;35.34;26.20;99755.47;1669314;84;21139;-62
2021/08/18 09:32:26;;;;;;;18.30;11.80;;;;;;;35.43;25.97;99749.25;1658185;84;21027;-61
2021/08/18 09:34:59;;;;;;;16.80;11.05;;;;;;;35.44;25.87;99745.39;1663384;83;20980;-61
2021/08/18 09:37:27;;;;;;;21.15;11.80;;;;;;;35.36;25.79;99745.06;1663613;84;21081;-60
2021/08/18 09:39:55;;;;;;;20.10;11.60;;;;;;;35.38;26.33;99742.77;1653914;84;22538;-60
2021/08/18 09:42:29;;;;;;;21.00;12.50;;;;;;;35.45;26.13;99745.59;1656233;85;22079;-63
2021/08/18 09:45:17;;;;;;;20.15;13.13;;;;;;;35.56;26.39;99740.38;1669057;85;21090;-60
2021/08/18 09:47:59;;;;;;;20.43;12.28;;;;;;;35.61;26.11;99736.56;1661141;85;22404;-60
2021/08/18 09:50:30;;;;;;;24.57;12.75;;;;;;;35.60;26.73;99735.78;1666441;83;21076;-61
2021/08/18 09:53:13;;;;;;;17.98;12.30;;;;;;;35.54;26.90;99735.33;1667808;84;21016;-61
2021/08/18 09:55:49;;;;;;;17.92;12.33;;;;;;;35.43;26.89;99738.41;1672863;84;21789;-59
2021/08/18 09:58:31;;;;;;;19.48;12.18;;;;;;;35.32;26.72;99729.33;1664931;84;21032;-58
2021/08/18 10:01:08;;;;;;;21.27;12.98;;;;;;;35.27;26.65;99730.42;1673601;84;21068;-60
2021/08/18 10:03:33;;;;;;;16.97;12.78;;;;;;;35.27;26.92;99724.19;1668444;84;21036;-60
2021/08/18 10:06:01;;;;;;;20.97;12.28;;;;;;;35.40;27.83;99724.22;1638491;85;21164;-59
2021/08/18 10:08:27;;;;;;;24.00;12.88;;;;;;;35.60;27.26;99724.16;1665531;83;21469;-59
2021/08/18 10:10:56;;;;;;;20.15;12.85;;;;;;;35.82;26.92;99723.33;1674081;84;20946;-60
2021/08/18 10:13:23;;;;;;;17.90;12.68;;;;;;;36.00;26.48;99722.25;1671024;84;20957;-59
2021/08/18 10:15:50;;;;;;;22.07;13.95;;;;;;;36.13;26.69;99719.50;1673072;84;21178;-59
2021/08/18 10:18:28;;;;;;;25.62;12.55;;;;;;;36.22;26.38;99716.52;1674427;84;20981;-60
2021/08/18 10:21:01;;;;;;;17.12;12.30;;;;;;;36.43;26.20;99716.76;1676654;84;21871;-60
2021/08/18 10:23:54;;;;;;;17.25;11.83;;;;;;;36.69;25.82;99711.06;1686433;83;20915;-59
2021/08/18 10:26:38;;;;;;;17.37;12.20;;;;;;;36.97;25.69;99709.20;1672966;84;21560;-60
2021/08/18 10:29:13;;;;;;;20.23;12.37;;;;;;;37.24;25.47;99710.63;1678862;84;21555;-60
2021/08/18 10:31:47;;;;;;;16.05;11.70;;;;;;;37.49;25.65;99698.58;1674388;83;21127;-60
2021/08/18 10:34:25;;;;;;;23.47;13.53;;;;;;;37.73;24.94;99692.31;1667301;84;21152;-60
2021/08/18 10:37:00;;;;;;;25.37;12.13;;;;;;;37.95;24.17;99687.20;1670880;84;21058;-62
2021/08/18 10:39:51;;;;;;;15.43;11.35;;;;;;;38.05;24.38;99686.30;1670931;84;21179;-61
2021/08/18 10:42:42;;;;;;;19.45;11.78;;;;;;;38.12;24.11;99678.16;1682369;83;21023;-59
2021/08/18 10:45:27;;;;;;;22.48;12.63;;;;;;;37.94;24.69;99676.13;1672828;84;21004;-59
2021/08/18 10:47:56;;;;;;;16.85;12.13;;;;;;;37.79;24.50;99669.03;1681491;83;21805;-58
2021/08/18 10:50:28;;;;;;;21.25;12.55;;;;;;;37.70;25.29;99676.77;1678895;84;21005;-59
2021/08/18 10:52:55;;;;;;;17.12;11.97;;;;;;;37.63;25.19;99669.34;1675971;84;20901;-59
2021/08/18 10:55:29;;;;;;;18.07;12.00;;;;;;;37.52;24.96;99666.37;1677551;84;21003;-58
2021/08/18 10:58:08;;;;;;;22.58;12.60;;;;;;;37.42;24.87;99664.55;1679879;83;21500;-59
2021/08/18 11:00:37;;;;;;;16.90;11.90;;;;;;;37.38;25.19;99661.58;1682814;83;21133;-59
2021/08/18 11:03:08;;;;;;;18.85;12.63;;;;;;;37.36;25.38;99667.41;1668382;84;21573;-59
2021/08/18 11:05:43;;;;;;;21.37;12.68;;;;;;;37.34;25.58;99668.94;1602432;87;21104;-59
2021/08/18 11:08:43;;;;;;;22.90;14.35;;;;;;;37.20;25.32;99663.62;1583340;88;21640;-59
2021/08/18 11:11:11;;;;;;;29.80;15.28;;;;;;;37.30;25.98;99661.34;1604896;88;20997;-59
2021/08/18 11:13:49;;;;;;;;;;;;;;;37.43;26.03;99655.81;1616999;88;21584;-59
2021/08/18 11:16:30;;;;;;;19.10;14.58;;;;;;;37.54;25.83;99656.66;1646559;86;20182;-59
2021/08/18 11:19:10;;;;;;;22.25;12.75;;;;;;;37.56;25.36;99652.98;1644629;86;21140;-59
2021/08/18 11:21:41;;;;;;;18.60;13.00;;;;;;;37.66;25.04;99652.86;1644787;86;21065;-59